createdAt,value
2019-05-16T00:05:03.272Z,22.9
2019-05-16T00:20:04.212Z,22.9
2019-05-16T00:35:04.388Z,22.8
2019-05-16T00:50:03.790Z,22.8
2019-05-16T01:05:05.209Z,22.8
2019-05-16T01:20:03.662Z,22.8
2019-05-16T01:35:10.602Z,22.8
2019-05-16T01:50:08.606Z,22.8
2019-05-16T02:05:05.685Z,22.7
2019-05-16T02:20:03.842Z,22.7
2019-05-16T02:35:03.846Z,22.8
2019-05-16T02:50:03.455Z,22.7
2019-05-16T03:05:04.153Z,22.7
2019-05-16T03:20:04.607Z,22.8
2019-05-16T03:35:05.799Z,22.8
2019-05-16T03:50:04.495Z,22.8
2019-05-16T04:05:04.217Z,22.8
2019-05-16T04:20:05.223Z,22.8
2019-05-16T04:35:04.528Z,22.8
2019-05-16T04:50:04.200Z,22.8
2019-05-16T05:05:04.498Z,22.9
2019-05-16T05:20:06.155Z,22.9
2019-05-16T05:35:04.072Z,23
2019-05-16T05:50:05.449Z,23.1
2019-05-16T06:05:06.875Z,23.3
2019-05-16T06:20:03.687Z,23.4
2019-05-16T06:35:06.962Z,23.6
2019-05-16T06:50:05.961Z,23.7
2019-05-16T07:05:03.748Z,23.9
2019-05-16T07:20:05.146Z,24
2019-05-16T07:35:03.072Z,24.1
2019-05-16T07:50:07.037Z,24.3
2019-05-16T08:05:03.950Z,24.4
2019-05-16T08:20:04.274Z,24.5
2019-05-16T08:35:04.646Z,24.6
2019-05-16T08:50:12.336Z,24.8
2019-05-16T09:05:06.268Z,24.9
2019-05-16T09:20:08.484Z,25
2019-05-16T09:35:07.470Z,25.1
2019-05-16T09:50:06.249Z,25.2
2019-05-16T10:05:04.075Z,25.3
2019-05-16T10:20:03.849Z,25.4
2019-05-16T10:35:04.678Z,25.4
2019-05-16T10:50:06.630Z,25.5
2019-05-16T11:05:22.363Z,25.5
2019-05-16T11:20:03.722Z,25.6
2019-05-16T11:35:07.245Z,25.7
2019-05-16T11:50:07.197Z,25.7
2019-05-16T12:05:05.741Z,25.7
2019-05-16T12:20:07.937Z,25.7
2019-05-16T12:35:06.427Z,25.7
2019-05-16T12:50:07.157Z,25.7
2019-05-16T13:05:03.870Z,25.7
2019-05-16T13:20:08.483Z,25.7
2019-05-16T13:35:06.974Z,25.6
2019-05-16T13:50:11.461Z,25.6
2019-05-16T14:05:07.619Z,25.6
2019-05-16T14:20:14.155Z,25.6
2019-05-16T14:35:08.358Z,25.6
2019-05-16T14:50:11.451Z,25.6
2019-05-16T15:05:04.298Z,25.6
2019-05-16T15:20:06.588Z,25.4
2019-05-16T15:35:08.540Z,25.3
2019-05-16T15:50:07.300Z,25
2019-05-16T16:05:06.863Z,24.9
2019-05-16T16:20:09.865Z,24.6
2019-05-16T16:35:07.851Z,24.5
2019-05-16T16:50:07.657Z,24.3
2019-05-16T17:05:10.203Z,24.2
2019-05-16T17:20:07.518Z,24
2019-05-16T17:35:03.522Z,24
2019-05-16T17:50:12.364Z,23.9
2019-05-16T18:05:07.360Z,23.9
2019-05-16T18:20:06.592Z,23.7
2019-05-16T18:35:07.244Z,23.7
2019-05-16T18:50:06.682Z,23.6
2019-05-16T19:05:06.749Z,23.5
2019-05-16T19:20:06.583Z,23.5
2019-05-16T19:35:06.975Z,23.4
2019-05-16T19:50:06.431Z,23.4
2019-05-16T20:05:03.284Z,23.3
2019-05-16T20:20:05.485Z,23.3
2019-05-16T20:35:08.285Z,23.2
2019-05-16T20:50:04.191Z,23.2
2019-05-16T21:05:03.552Z,23.1
2019-05-16T21:20:03.711Z,23.1
2019-05-16T21:35:06.971Z,23.1
2019-05-16T21:50:04.455Z,23
2019-05-16T22:05:06.268Z,23
2019-05-16T22:20:04.196Z,23
2019-05-16T22:35:07.548Z,22.9
2019-05-16T22:50:04.187Z,22.9
2019-05-16T23:05:03.632Z,22.9
2019-05-16T23:20:06.306Z,22.8
2019-05-16T23:35:06.731Z,22.8
2019-05-16T23:50:03.846Z,22.8
